sensor_id;sensor_type;location;lat;lon;timestamp;P1;durP1;ratioP1;P2;durP2;ratioP2
23470;SDS011;11908;50.806;4.424;2024-02-14T00:00:57;6.50;;;4.32;;
23470;SDS011;11908;50.806;4.424;2024-02-14T00:03:23;8.45;;;4.03;;
23470;SDS011;11908;50.806;4.424;2024-02-14T00:05:49;6.25;;;3.90;;
23470;SDS011;11908;50.806;4.424;2024-02-14T00:08:14;11.38;;;4.60;;
23470;SDS011;11908;50.806;4.424;2024-02-14T00:10:40;5.43;;;3.60;;
23470;SDS011;11908;50.806;4.424;2024-02-14T00:13:08;10.05;;;4.25;;
23470;SDS011;11908;50.806;4.424;2024-02-14T00:15:34;5.63;;;3.88;;
23470;SDS011;11908;50.806;4.424;2024-02-14T00:18:00;7.00;;;4.30;;
23470;SDS011;11908;50.806;4.424;2024-02-14T00:20:26;6.55;;;3.60;;
23470;SDS011;11908;50.806;4.424;2024-02-14T00:22:51;9.43;;;4.30;;
23470;SDS011;11908;50.806;4.424;2024-02-14T00:25:17;10.05;;;5.45;;
23470;SDS011;11908;50.806;4.424;2024-02-14T00:27:42;7.32;;;4.50;;
23470;SDS011;11908;50.806;4.424;2024-02-14T00:30:11;7.82;;;4.20;;
23470;SDS011;11908;50.806;4.424;2024-02-14T00:32:37;8.35;;;4.00;;
23470;SDS011;11908;50.806;4.424;2024-02-14T00:35:03;6.90;;;4.07;;
23470;SDS011;11908;50.806;4.424;2024-02-14T00:37:29;6.35;;;4.05;;
23470;SDS011;11908;50.806;4.424;2024-02-14T00:39:55;5.80;;;4.25;;
23470;SDS011;11908;50.806;4.424;2024-02-14T00:42:22;6.03;;;3.53;;
23470;SDS011;11908;50.806;4.424;2024-02-14T00:44:48;7.70;;;4.15;;
23470;SDS011;11908;50.806;4.424;2024-02-14T00:47:13;7.28;;;4.57;;
23470;SDS011;11908;50.806;4.424;2024-02-14T00:49:39;5.70;;;3.92;;
23470;SDS011;11908;50.806;4.424;2024-02-14T00:52:05;9.35;;;4.20;;
23470;SDS011;11908;50.806;4.424;2024-02-14T00:54:31;7.22;;;4.72;;
23470;SDS011;11908;50.806;4.424;2024-02-14T00:56:57;7.75;;;3.80;;
23470;SDS011;11908;50.806;4.424;2024-02-14T00:59:23;5.60;;;4.43;;
23470;SDS011;11908;50.806;4.424;2024-02-14T01:01:49;7.88;;;4.53;;
23470;SDS011;11908;50.806;4.424;2024-02-14T01:04:15;5.68;;;3.65;;
23470;SDS011;11908;50.806;4.424;2024-02-14T01:06:41;8.95;;;4.72;;
23470;SDS011;11908;50.806;4.424;2024-02-14T01:09:07;8.68;;;4.15;;
23470;SDS011;11908;50.806;4.424;2024-02-14T01:11:33;7.30;;;3.88;;
23470;SDS011;11908;50.806;4.424;2024-02-14T01:13:59;9.40;;;4.53;;
23470;SDS011;11908;50.806;4.424;2024-02-14T01:16:25;7.55;;;4.15;;
23470;SDS011;11908;50.806;4.424;2024-02-14T01:18:51;6.45;;;4.65;;
23470;SDS011;11908;50.806;4.424;2024-02-14T01:21:17;5.97;;;4.00;;
23470;SDS011;11908;50.806;4.424;2024-02-14T01:23:42;9.70;;;4.32;;
23470;SDS011;11908;50.806;4.424;2024-02-14T01:26:08;5.63;;;4.22;;
23470;SDS011;11908;50.806;4.424;2024-02-14T01:28:33;8.10;;;4.18;;
23470;SDS011;11908;50.806;4.424;2024-02-14T01:30:59;11.10;;;4.65;;
23470;SDS011;11908;50.806;4.424;2024-02-14T01:33:25;9.40;;;4.50;;
23470;SDS011;11908;50.806;4.424;2024-02-14T01:35:50;8.13;;;4.63;;
23470;SDS011;11908;50.806;4.424;2024-02-14T01:38:16;6.20;;;4.32;;
23470;SDS011;11908;50.806;4.424;2024-02-14T01:40:42;8.40;;;5.20;;
23470;SDS011;11908;50.806;4.424;2024-02-14T01:43:09;7.38;;;4.63;;
23470;SDS011;11908;50.806;4.424;2024-02-14T01:45:37;10.68;;;5.15;;
23470;SDS011;11908;50.806;4.424;2024-02-14T01:48:03;6.57;;;4.72;;
23470;SDS011;11908;50.806;4.424;2024-02-14T01:50:31;13.77;;;4.75;;
23470;SDS011;11908;50.806;4.424;2024-02-14T01:52:58;8.82;;;5.05;;
23470;SDS011;11908;50.806;4.424;2024-02-14T01:55:24;7.43;;;4.93;;
23470;SDS011;11908;50.806;4.424;2024-02-14T01:57:52;10.75;;;5.00;;
23470;SDS011;11908;50.806;4.424;2024-02-14T02:00:19;8.93;;;5.53;;
23470;SDS011;11908;50.806;4.424;2024-02-14T02:02:45;9.93;;;4.70;;
23470;SDS011;11908;50.806;4.424;2024-02-14T02:05:14;12.60;;;5.10;;
23470;SDS011;11908;50.806;4.424;2024-02-14T02:07:41;9.80;;;5.50;;
23470;SDS011;11908;50.806;4.424;2024-02-14T02:10:11;8.30;;;5.22;;
23470;SDS011;11908;50.806;4.424;2024-02-14T02:12:37;10.48;;;5.45;;
23470;SDS011;11908;50.806;4.424;2024-02-14T02:15:06;10.52;;;5.20;;
23470;SDS011;11908;50.806;4.424;2024-02-14T02:17:36;13.60;;;5.40;;
23470;SDS011;11908;50.806;4.424;2024-02-14T02:20:02;5.97;;;5.15;;
23470;SDS011;11908;50.806;4.424;2024-02-14T02:22:27;9.38;;;5.68;;
23470;SDS011;11908;50.806;4.424;2024-02-14T02:25:00;11.85;;;5.80;;
23470;SDS011;11908;50.806;4.424;2024-02-14T02:27:26;11.90;;;5.97;;
23470;SDS011;11908;50.806;4.424;2024-02-14T02:29:52;13.45;;;5.93;;
23470;SDS011;11908;50.806;4.424;2024-02-14T02:32:18;12.82;;;6.50;;
23470;SDS011;11908;50.806;4.424;2024-02-14T02:34:43;11.63;;;5.80;;
23470;SDS011;11908;50.806;4.424;2024-02-14T02:37:10;9.77;;;5.97;;
23470;SDS011;11908;50.806;4.424;2024-02-14T02:39:36;12.50;;;6.57;;
23470;SDS011;11908;50.806;4.424;2024-02-14T02:42:02;9.82;;;6.30;;
23470;SDS011;11908;50.806;4.424;2024-02-14T02:44:28;9.13;;;6.95;;
23470;SDS011;11908;50.806;4.424;2024-02-14T02:46:54;13.20;;;6.32;;
23470;SDS011;11908;50.806;4.424;2024-02-14T02:49:20;11.18;;;6.60;;
23470;SDS011;11908;50.806;4.424;2024-02-14T02:51:46;11.45;;;6.82;;
23470;SDS011;11908;50.806;4.424;2024-02-14T02:54:13;12.43;;;7.28;;
23470;SDS011;11908;50.806;4.424;2024-02-14T02:56:39;9.98;;;6.90;;
23470;SDS011;11908;50.806;4.424;2024-02-14T02:59:07;12.13;;;7.70;;
23470;SDS011;11908;50.806;4.424;2024-02-14T03:01:36;11.82;;;7.00;;
23470;SDS011;11908;50.806;4.424;2024-02-14T03:04:02;13.95;;;7.50;;
23470;SDS011;11908;50.806;4.424;2024-02-14T03:06:28;13.45;;;7.70;;
23470;SDS011;11908;50.806;4.424;2024-02-14T03:08:54;14.98;;;7.78;;
23470;SDS011;11908;50.806;4.424;2024-02-14T03:11:22;12.48;;;7.25;;
23470;SDS011;11908;50.806;4.424;2024-02-14T03:13:48;9.70;;;7.18;;
23470;SDS011;11908;50.806;4.424;2024-02-14T03:16:14;12.40;;;7.85;;
23470;SDS011;11908;50.806;4.424;2024-02-14T03:18:42;11.35;;;7.43;;
23470;SDS011;11908;50.806;4.424;2024-02-14T03:21:09;14.25;;;7.68;;
23470;SDS011;11908;50.806;4.424;2024-02-14T03:23:34;12.60;;;7.03;;
23470;SDS011;11908;50.806;4.424;2024-02-14T03:26:00;11.60;;;7.95;;
23470;SDS011;11908;50.806;4.424;2024-02-14T03:28:26;11.80;;;6.88;;
23470;SDS011;11908;50.806;4.424;2024-02-14T03:30:52;11.70;;;7.00;;
23470;SDS011;11908;50.806;4.424;2024-02-14T03:33:18;11.40;;;6.70;;
23470;SDS011;11908;50.806;4.424;2024-02-14T03:35:44;14.98;;;7.40;;
23470;SDS011;11908;50.806;4.424;2024-02-14T03:38:10;10.82;;;7.57;;
23470;SDS011;11908;50.806;4.424;2024-02-14T03:40:36;10.07;;;6.38;;
23470;SDS011;11908;50.806;4.424;2024-02-14T03:43:03;14.98;;;8.70;;
23470;SDS011;11908;50.806;4.424;2024-02-14T03:45:30;15.75;;;8.52;;
23470;SDS011;11908;50.806;4.424;2024-02-14T03:47:55;12.75;;;8.30;;
23470;SDS011;11908;50.806;4.424;2024-02-14T03:50:22;13.15;;;7.82;;
23470;SDS011;11908;50.806;4.424;2024-02-14T03:52:47;14.40;;;8.55;;
23470;SDS011;11908;50.806;4.424;2024-02-14T03:55:14;11.02;;;7.53;;
23470;SDS011;11908;50.806;4.424;2024-02-14T03:57:42;15.07;;;8.15;;
23470;SDS011;11908;50.806;4.424;2024-02-14T04:00:10;18.05;;;8.00;;
23470;SDS011;11908;50.806;4.424;2024-02-14T04:02:36;14.00;;;7.85;;
23470;SDS011;11908;50.806;4.424;2024-02-14T04:05:03;14.23;;;8.38;;
23470;SDS011;11908;50.806;4.424;2024-02-14T04:07:29;12.25;;;8.32;;
23470;SDS011;11908;50.806;4.424;2024-02-14T04:09:55;12.13;;;8.55;;
23470;SDS011;11908;50.806;4.424;2024-02-14T04:12:21;18.48;;;8.82;;
23470;SDS011;11908;50.806;4.424;2024-02-14T04:14:47;14.55;;;9.40;;
23470;SDS011;11908;50.806;4.424;2024-02-14T04:17:13;16.20;;;9.57;;
23470;SDS011;11908;50.806;4.424;2024-02-14T04:19:39;15.90;;;9.43;;
23470;SDS011;11908;50.806;4.424;2024-02-14T04:22:05;17.00;;;9.80;;
23470;SDS011;11908;50.806;4.424;2024-02-14T04:24:35;14.30;;;9.77;;
23470;SDS011;11908;50.806;4.424;2024-02-14T04:27:01;16.95;;;9.75;;
23470;SDS011;11908;50.806;4.424;2024-02-14T04:29:28;11.85;;;9.02;;
23470;SDS011;11908;50.806;4.424;2024-02-14T04:31:55;14.30;;;9.60;;
23470;SDS011;11908;50.806;4.424;2024-02-14T04:34:21;16.27;;;9.82;;
23470;SDS011;11908;50.806;4.424;2024-02-14T04:36:47;19.52;;;10.52;;
23470;SDS011;11908;50.806;4.424;2024-02-14T04:39:13;16.02;;;9.18;;
23470;SDS011;11908;50.806;4.424;2024-02-14T04:41:39;15.57;;;9.73;;
23470;SDS011;11908;50.806;4.424;2024-02-14T04:44:04;16.67;;;9.18;;
23470;SDS011;11908;50.806;4.424;2024-02-14T04:46:32;15.93;;;9.63;;
23470;SDS011;11908;50.806;4.424;2024-02-14T04:48:58;15.70;;;9.88;;
23470;SDS011;11908;50.806;4.424;2024-02-14T04:51:23;13.93;;;10.27;;
23470;SDS011;11908;50.806;4.424;2024-02-14T04:53:49;15.50;;;9.75;;
23470;SDS011;11908;50.806;4.424;2024-02-14T04:56:15;17.27;;;9.93;;
23470;SDS011;11908;50.806;4.424;2024-02-14T04:58:40;18.02;;;10.30;;
23470;SDS011;11908;50.806;4.424;2024-02-14T05:01:07;16.38;;;10.60;;
23470;SDS011;11908;50.806;4.424;2024-02-14T05:03:32;14.95;;;9.98;;
23470;SDS011;11908;50.806;4.424;2024-02-14T05:05:58;20.10;;;11.10;;
23470;SDS011;11908;50.806;4.424;2024-02-14T05:08:27;16.98;;;10.13;;
23470;SDS011;11908;50.806;4.424;2024-02-14T05:10:53;16.65;;;11.10;;
23470;SDS011;11908;50.806;4.424;2024-02-14T05:13:19;21.65;;;11.55;;
23470;SDS011;11908;50.806;4.424;2024-02-14T05:15:44;17.42;;;10.73;;
23470;SDS011;11908;50.806;4.424;2024-02-14T05:18:10;17.63;;;11.63;;
23470;SDS011;11908;50.806;4.424;2024-02-14T05:20:36;17.10;;;12.10;;
23470;SDS011;11908;50.806;4.424;2024-02-14T05:23:03;20.65;;;10.95;;
23470;SDS011;11908;50.806;4.424;2024-02-14T05:25:28;17.92;;;11.02;;
23470;SDS011;11908;50.806;4.424;2024-02-14T05:27:54;17.38;;;11.25;;
23470;SDS011;11908;50.806;4.424;2024-02-14T05:30:20;16.50;;;10.50;;
23470;SDS011;11908;50.806;4.424;2024-02-14T05:32:46;19.73;;;11.43;;
23470;SDS011;11908;50.806;4.424;2024-02-14T05:35:11;15.68;;;11.43;;
23470;SDS011;11908;50.806;4.424;2024-02-14T05:37:37;19.58;;;10.93;;
23470;SDS011;11908;50.806;4.424;2024-02-14T05:40:04;16.55;;;11.57;;
23470;SDS011;11908;50.806;4.424;2024-02-14T05:42:32;18.55;;;10.65;;
23470;SDS011;11908;50.806;4.424;2024-02-14T05:44:59;16.17;;;10.65;;
23470;SDS011;11908;50.806;4.424;2024-02-14T05:47:26;17.88;;;11.48;;
23470;SDS011;11908;50.806;4.424;2024-02-14T05:49:52;20.10;;;11.63;;
23470;SDS011;11908;50.806;4.424;2024-02-14T05:52:17;14.60;;;10.32;;
23470;SDS011;11908;50.806;4.424;2024-02-14T05:54:43;18.92;;;11.20;;
23470;SDS011;11908;50.806;4.424;2024-02-14T05:57:09;18.15;;;11.07;;
23470;SDS011;11908;50.806;4.424;2024-02-14T05:59:35;21.30;;;11.18;;
23470;SDS011;11908;50.806;4.424;2024-02-14T06:02:00;17.00;;;10.55;;
23470;SDS011;11908;50.806;4.424;2024-02-14T06:04:28;18.40;;;10.35;;
23470;SDS011;11908;50.806;4.424;2024-02-14T06:06:53;16.90;;;10.27;;
23470;SDS011;11908;50.806;4.424;2024-02-14T06:09:19;17.55;;;10.52;;
23470;SDS011;11908;50.806;4.424;2024-02-14T06:11:45;16.25;;;11.07;;
23470;SDS011;11908;50.806;4.424;2024-02-14T06:14:10;19.15;;;10.38;;
23470;SDS011;11908;50.806;4.424;2024-02-14T06:16:37;21.10;;;11.05;;
23470;SDS011;11908;50.806;4.424;2024-02-14T06:19:03;17.35;;;9.90;;
23470;SDS011;11908;50.806;4.424;2024-02-14T06:21:29;18.35;;;11.23;;
23470;SDS011;11908;50.806;4.424;2024-02-14T06:23:55;16.88;;;11.15;;
23470;SDS011;11908;50.806;4.424;2024-02-14T06:26:23;14.52;;;10.20;;
23470;SDS011;11908;50.806;4.424;2024-02-14T06:28:49;16.45;;;10.18;;
23470;SDS011;11908;50.806;4.424;2024-02-14T06:31:19;16.27;;;9.82;;
23470;SDS011;11908;50.806;4.424;2024-02-14T06:33:47;17.90;;;10.80;;
23470;SDS011;11908;50.806;4.424;2024-02-14T06:36:13;15.63;;;10.13;;
23470;SDS011;11908;50.806;4.424;2024-02-14T06:38:39;20.95;;;10.82;;
23470;SDS011;11908;50.806;4.424;2024-02-14T06:41:05;19.73;;;11.18;;
23470;SDS011;11908;50.806;4.424;2024-02-14T06:43:31;20.17;;;10.10;;
23470;SDS011;11908;50.806;4.424;2024-02-14T06:45:57;18.15;;;9.85;;
23470;SDS011;11908;50.806;4.424;2024-02-14T06:48:22;22.63;;;10.30;;
23470;SDS011;11908;50.806;4.424;2024-02-14T06:50:52;16.83;;;10.75;;
23470;SDS011;11908;50.806;4.424;2024-02-14T06:53:18;15.50;;;10.43;;
23470;SDS011;11908;50.806;4.424;2024-02-14T06:55:44;23.63;;;11.23;;
23470;SDS011;11908;50.806;4.424;2024-02-14T06:58:10;19.60;;;11.15;;
23470;SDS011;11908;50.806;4.424;2024-02-14T07:00:35;19.40;;;11.32;;
23470;SDS011;11908;50.806;4.424;2024-02-14T07:03:01;21.27;;;10.73;;
23470;SDS011;11908;50.806;4.424;2024-02-14T07:05:27;18.60;;;11.45;;
23470;SDS011;11908;50.806;4.424;2024-02-14T07:07:54;21.17;;;11.35;;
23470;SDS011;11908;50.806;4.424;2024-02-14T07:10:20;20.67;;;10.65;;
23470;SDS011;11908;50.806;4.424;2024-02-14T07:12:46;21.27;;;11.48;;
23470;SDS011;11908;50.806;4.424;2024-02-14T07:15:12;16.75;;;10.68;;
23470;SDS011;11908;50.806;4.424;2024-02-14T07:17:37;21.83;;;10.50;;
23470;SDS011;11908;50.806;4.424;2024-02-14T07:20:04;15.52;;;10.07;;
23470;SDS011;11908;50.806;4.424;2024-02-14T07:22:30;18.75;;;10.55;;
23470;SDS011;11908;50.806;4.424;2024-02-14T07:24:56;15.48;;;10.77;;
23470;SDS011;11908;50.806;4.424;2024-02-14T07:27:22;16.90;;;9.93;;
23470;SDS011;11908;50.806;4.424;2024-02-14T07:29:49;15.35;;;10.43;;
23470;SDS011;11908;50.806;4.424;2024-02-14T07:32:14;16.80;;;10.48;;
23470;SDS011;11908;50.806;4.424;2024-02-14T07:34:41;16.33;;;9.85;;
23470;SDS011;11908;50.806;4.424;2024-02-14T07:37:07;20.27;;;10.20;;
23470;SDS011;11908;50.806;4.424;2024-02-14T07:39:33;21.45;;;10.30;;
23470;SDS011;11908;50.806;4.424;2024-02-14T07:42:00;14.80;;;10.15;;
23470;SDS011;11908;50.806;4.424;2024-02-14T07:44:27;16.75;;;10.05;;
23470;SDS011;11908;50.806;4.424;2024-02-14T07:46:52;20.98;;;10.27;;
23470;SDS011;11908;50.806;4.424;2024-02-14T07:49:18;16.58;;;10.30;;
23470;SDS011;11908;50.806;4.424;2024-02-14T07:51:47;18.85;;;9.68;;
23470;SDS011;11908;50.806;4.424;2024-02-14T07:54:13;21.38;;;9.98;;
23470;SDS011;11908;50.806;4.424;2024-02-14T07:56:39;20.48;;;10.65;;
23470;SDS011;11908;50.806;4.424;2024-02-14T07:59:04;16.02;;;9.65;;
23470;SDS011;11908;50.806;4.424;2024-02-14T08:01:30;16.23;;;10.20;;
23470;SDS011;11908;50.806;4.424;2024-02-14T08:03:57;14.98;;;8.40;;
23470;SDS011;11908;50.806;4.424;2024-02-14T08:06:23;19.35;;;9.32;;
23470;SDS011;11908;50.806;4.424;2024-02-14T08:08:49;12.13;;;8.32;;
23470;SDS011;11908;50.806;4.424;2024-02-14T08:11:18;14.13;;;9.15;;
23470;SDS011;11908;50.806;4.424;2024-02-14T08:13:44;19.65;;;9.18;;
23470;SDS011;11908;50.806;4.424;2024-02-14T08:16:10;19.27;;;9.45;;
23470;SDS011;11908;50.806;4.424;2024-02-14T08:18:37;12.30;;;9.35;;
23470;SDS011;11908;50.806;4.424;2024-02-14T08:21:04;15.35;;;9.85;;
23470;SDS011;11908;50.806;4.424;2024-02-14T08:23:31;17.77;;;10.02;;
23470;SDS011;11908;50.806;4.424;2024-02-14T08:25:57;17.38;;;9.40;;
23470;SDS011;11908;50.806;4.424;2024-02-14T08:28:23;16.73;;;10.32;;
23470;SDS011;11908;50.806;4.424;2024-02-14T08:30:49;16.58;;;10.25;;
23470;SDS011;11908;50.806;4.424;2024-02-14T08:33:15;15.68;;;11.25;;
23470;SDS011;11908;50.806;4.424;2024-02-14T08:35:40;17.85;;;10.38;;
23470;SDS011;11908;50.806;4.424;2024-02-14T08:38:06;16.45;;;9.75;;
23470;SDS011;11908;50.806;4.424;2024-02-14T08:40:33;19.75;;;10.77;;
23470;SDS011;11908;50.806;4.424;2024-02-14T08:42:59;17.50;;;10.50;;
23470;SDS011;11908;50.806;4.424;2024-02-14T08:45:24;16.88;;;10.77;;
23470;SDS011;11908;50.806;4.424;2024-02-14T08:47:54;16.67;;;10.77;;
23470;SDS011;11908;50.806;4.424;2024-02-14T08:50:19;24.80;;;10.98;;
23470;SDS011;11908;50.806;4.424;2024-02-14T08:52:45;51.83;;;14.10;;
23470;SDS011;11908;50.806;4.424;2024-02-14T08:55:11;22.65;;;11.65;;
23470;SDS011;11908;50.806;4.424;2024-02-14T08:57:42;16.45;;;10.93;;
23470;SDS011;11908;50.806;4.424;2024-02-14T09:00:08;26.15;;;12.45;;
23470;SDS011;11908;50.806;4.424;2024-02-14T09:02:35;52.65;;;15.65;;
23470;SDS011;11908;50.806;4.424;2024-02-14T09:05:01;17.13;;;11.32;;
23470;SDS011;11908;50.806;4.424;2024-02-14T09:07:29;21.05;;;11.93;;
23470;SDS011;11908;50.806;4.424;2024-02-14T09:09:56;26.90;;;17.83;;
23470;SDS011;11908;50.806;4.424;2024-02-14T09:12:22;18.17;;;10.55;;
23470;SDS011;11908;50.806;4.424;2024-02-14T09:14:48;19.73;;;11.93;;
23470;SDS011;11908;50.806;4.424;2024-02-14T09:17:14;19.77;;;11.43;;
23470;SDS011;11908;50.806;4.424;2024-02-14T09:19:40;16.88;;;11.45;;
23470;SDS011;11908;50.806;4.424;2024-02-14T09:22:06;17.48;;;11.52;;
23470;SDS011;11908;50.806;4.424;2024-02-14T09:24:32;16.92;;;10.85;;
23470;SDS011;11908;50.806;4.424;2024-02-14T09:26:57;15.27;;;10.50;;
23470;SDS011;11908;50.806;4.424;2024-02-14T09:29:24;18.27;;;10.70;;
23470;SDS011;11908;50.806;4.424;2024-02-14T09:31:50;18.05;;;11.18;;
23470;SDS011;11908;50.806;4.424;2024-02-14T09:34:16;13.57;;;9.77;;
23470;SDS011;11908;50.806;4.424;2024-02-14T09:36:44;14.32;;;10.30;;
23470;SDS011;11908;50.806;4.424;2024-02-14T09:39:13;16.15;;;8.77;;
23470;SDS011;11908;50.806;4.424;2024-02-14T09:41:42;12.70;;;8.38;;
23470;SDS011;11908;50.806;4.424;2024-02-14T09:44:12;10.75;;;8.15;;
23470;SDS011;11908;50.806;4.424;2024-02-14T09:46:38;11.52;;;7.45;;
23470;SDS011;11908;50.806;4.424;2024-02-14T09:49:05;10.75;;;7.88;;
23470;SDS011;11908;50.806;4.424;2024-02-14T09:51:31;10.15;;;7.68;;
23470;SDS011;11908;50.806;4.424;2024-02-14T09:53:57;10.38;;;6.90;;
23470;SDS011;11908;50.806;4.424;2024-02-14T09:56:25;10.65;;;6.65;;
23470;SDS011;11908;50.806;4.424;2024-02-14T09:58:52;8.63;;;6.90;;
23470;SDS011;11908;50.806;4.424;2024-02-14T10:01:22;11.73;;;7.95;;
23470;SDS011;11908;50.806;4.424;2024-02-14T10:03:52;9.23;;;7.07;;
23470;SDS011;11908;50.806;4.424;2024-02-14T10:06:19;11.70;;;6.72;;
23470;SDS011;11908;50.806;4.424;2024-02-14T10:08:49;9.77;;;6.72;;
23470;SDS011;11908;50.806;4.424;2024-02-14T10:11:18;8.50;;;6.80;;
23470;SDS011;11908;50.806;4.424;2024-02-14T10:13:47;8.85;;;5.68;;
23470;SDS011;11908;50.806;4.424;2024-02-14T10:16:13;6.68;;;5.72;;
23470;SDS011;11908;50.806;4.424;2024-02-14T10:18:43;10.70;;;5.13;;
23470;SDS011;11908;50.806;4.424;2024-02-14T10:21:14;11.10;;;5.57;;
23470;SDS011;11908;50.806;4.424;2024-02-14T10:23:42;8.55;;;4.60;;
23470;SDS011;11908;50.806;4.424;2024-02-14T10:26:08;9.00;;;4.82;;
23470;SDS011;11908;50.806;4.424;2024-02-14T10:28:35;12.05;;;5.70;;
23470;SDS011;11908;50.806;4.424;2024-02-14T10:31:00;8.65;;;5.60;;
23470;SDS011;11908;50.806;4.424;2024-02-14T10:33:29;6.60;;;4.78;;
23470;SDS011;11908;50.806;4.424;2024-02-14T10:35:55;9.00;;;4.00;;
23470;SDS011;11908;50.806;4.424;2024-02-14T10:38:22;6.47;;;4.15;;
23470;SDS011;11908;50.806;4.424;2024-02-14T10:40:49;7.28;;;4.28;;
23470;SDS011;11908;50.806;4.424;2024-02-14T10:43:16;5.30;;;3.80;;
23470;SDS011;11908;50.806;4.424;2024-02-14T10:45:42;4.50;;;3.72;;
23470;SDS011;11908;50.806;4.424;2024-02-14T10:48:11;5.30;;;3.92;;
23470;SDS011;11908;50.806;4.424;2024-02-14T10:50:41;6.97;;;3.78;;
23470;SDS011;11908;50.806;4.424;2024-02-14T10:53:13;5.13;;;4.03;;
23470;SDS011;11908;50.806;4.424;2024-02-14T10:55:41;4.88;;;3.55;;
23470;SDS011;11908;50.806;4.424;2024-02-14T10:58:13;3.30;;;3.00;;
23470;SDS011;11908;50.806;4.424;2024-02-14T11:00:41;5.38;;;3.45;;
23470;SDS011;11908;50.806;4.424;2024-02-14T11:03:08;4.68;;;3.00;;
23470;SDS011;11908;50.806;4.424;2024-02-14T11:05:48;4.03;;;3.22;;
23470;SDS011;11908;50.806;4.424;2024-02-14T11:08:23;4.78;;;3.20;;
23470;SDS011;11908;50.806;4.424;2024-02-14T11:10:54;4.90;;;3.42;;
23470;SDS011;11908;50.806;4.424;2024-02-14T11:13:28;2.75;;;2.47;;
23470;SDS011;11908;50.806;4.424;2024-02-14T11:15:56;2.95;;;2.63;;
23470;SDS011;11908;50.806;4.424;2024-02-14T11:18:25;6.85;;;2.97;;
23470;SDS011;11908;50.806;4.424;2024-02-14T11:20:51;3.83;;;3.22;;
23470;SDS011;11908;50.806;4.424;2024-02-14T11:23:21;5.80;;;3.05;;
23470;SDS011;11908;50.806;4.424;2024-02-14T11:25:47;6.07;;;3.55;;
23470;SDS011;11908;50.806;4.424;2024-02-14T11:28:17;7.85;;;3.40;;
23470;SDS011;11908;50.806;4.424;2024-02-14T11:30:54;4.82;;;3.50;;
23470;SDS011;11908;50.806;4.424;2024-02-14T11:33:26;5.82;;;3.88;;
23470;SDS011;11908;50.806;4.424;2024-02-14T11:35:52;7.93;;;3.30;;
23470;SDS011;11908;50.806;4.424;2024-02-14T11:38:19;5.85;;;3.35;;
23470;SDS011;11908;50.806;4.424;2024-02-14T11:40:45;4.50;;;3.00;;
23470;SDS011;11908;50.806;4.424;2024-02-14T11:43:12;4.63;;;3.47;;
23470;SDS011;11908;50.806;4.424;2024-02-14T11:45:39;11.07;;;3.70;;
23470;SDS011;11908;50.806;4.424;2024-02-14T11:48:10;11.20;;;3.90;;
23470;SDS011;11908;50.806;4.424;2024-02-14T11:50:38;8.13;;;3.80;;
23470;SDS011;11908;50.806;4.424;2024-02-14T11:53:05;9.55;;;4.18;;
23470;SDS011;11908;50.806;4.424;2024-02-14T11:55:34;10.70;;;4.45;;
23470;SDS011;11908;50.806;4.424;2024-02-14T11:58:01;7.25;;;4.78;;
23470;SDS011;11908;50.806;4.424;2024-02-14T12:00:28;5.80;;;3.72;;
23470;SDS011;11908;50.806;4.424;2024-02-14T12:02:54;9.70;;;5.10;;
23470;SDS011;11908;50.806;4.424;2024-02-14T12:05:20;7.32;;;4.88;;
23470;SDS011;11908;50.806;4.424;2024-02-14T12:07:46;7.07;;;4.38;;
23470;SDS011;11908;50.806;4.424;2024-02-14T12:10:11;7.90;;;5.05;;
23470;SDS011;11908;50.806;4.424;2024-02-14T12:12:38;9.07;;;5.80;;
23470;SDS011;11908;50.806;4.424;2024-02-14T12:15:04;8.77;;;5.07;;
23470;SDS011;11908;50.806;4.424;2024-02-14T12:17:31;9.73;;;5.53;;
23470;SDS011;11908;50.806;4.424;2024-02-14T12:20:10;8.25;;;5.57;;
23470;SDS011;11908;50.806;4.424;2024-02-14T12:22:39;9.65;;;5.70;;
23470;SDS011;11908;50.806;4.424;2024-02-14T12:25:06;10.52;;;6.15;;
23470;SDS011;11908;50.806;4.424;2024-02-14T12:27:35;9.15;;;6.03;;
23470;SDS011;11908;50.806;4.424;2024-02-14T12:30:05;11.57;;;6.05;;
23470;SDS011;11908;50.806;4.424;2024-02-14T12:32:32;9.48;;;6.00;;
23470;SDS011;11908;50.806;4.424;2024-02-14T12:35:00;14.57;;;6.25;;
23470;SDS011;11908;50.806;4.424;2024-02-14T12:37:26;12.73;;;6.32;;
23470;SDS011;11908;50.806;4.424;2024-02-14T12:39:52;15.52;;;6.47;;
23470;SDS011;11908;50.806;4.424;2024-02-14T12:42:18;11.80;;;6.70;;
23470;SDS011;11908;50.806;4.424;2024-02-14T12:44:50;10.80;;;5.82;;
23470;SDS011;11908;50.806;4.424;2024-02-14T12:47:22;15.10;;;5.70;;
23470;SDS011;11908;50.806;4.424;2024-02-14T12:49:49;17.05;;;6.85;;
23470;SDS011;11908;50.806;4.424;2024-02-14T12:52:14;13.88;;;6.45;;
23470;SDS011;11908;50.806;4.424;2024-02-14T12:54:41;15.27;;;6.22;;
23470;SDS011;11908;50.806;4.424;2024-02-14T12:57:06;18.65;;;6.40;;
23470;SDS011;11908;50.806;4.424;2024-02-14T12:59:32;12.43;;;6.43;;
23470;SDS011;11908;50.806;4.424;2024-02-14T13:01:58;11.30;;;6.28;;
23470;SDS011;11908;50.806;4.424;2024-02-14T13:04:23;9.35;;;5.32;;
23470;SDS011;11908;50.806;4.424;2024-02-14T13:06:49;8.68;;;4.97;;
23470;SDS011;11908;50.806;4.424;2024-02-14T13:09:15;14.38;;;5.68;;
23470;SDS011;11908;50.806;4.424;2024-02-14T13:11:41;7.47;;;4.70;;
23470;SDS011;11908;50.806;4.424;2024-02-14T13:14:07;9.73;;;5.10;;
23470;SDS011;11908;50.806;4.424;2024-02-14T13:16:34;9.75;;;4.70;;
23470;SDS011;11908;50.806;4.424;2024-02-14T13:19:00;9.18;;;4.93;;
23470;SDS011;11908;50.806;4.424;2024-02-14T13:21:25;9.50;;;4.88;;
23470;SDS011;11908;50.806;4.424;2024-02-14T13:23:51;11.93;;;4.55;;
23470;SDS011;11908;50.806;4.424;2024-02-14T13:26:17;12.27;;;4.22;;
23470;SDS011;11908;50.806;4.424;2024-02-14T13:28:43;9.57;;;4.68;;
23470;SDS011;11908;50.806;4.424;2024-02-14T13:31:08;8.13;;;4.10;;
23470;SDS011;11908;50.806;4.424;2024-02-14T13:33:35;8.25;;;4.25;;
23470;SDS011;11908;50.806;4.424;2024-02-14T13:36:01;7.35;;;3.88;;
23470;SDS011;11908;50.806;4.424;2024-02-14T13:38:26;8.73;;;3.92;;
23470;SDS011;11908;50.806;4.424;2024-02-14T13:40:53;9.63;;;3.83;;
23470;SDS011;11908;50.806;4.424;2024-02-14T13:43:19;7.07;;;3.45;;
23470;SDS011;11908;50.806;4.424;2024-02-14T13:45:45;6.18;;;3.22;;
23470;SDS011;11908;50.806;4.424;2024-02-14T13:48:12;7.13;;;3.35;;
23470;SDS011;11908;50.806;4.424;2024-02-14T13:50:38;9.77;;;4.05;;
23470;SDS011;11908;50.806;4.424;2024-02-14T13:53:05;8.15;;;3.85;;
23470;SDS011;11908;50.806;4.424;2024-02-14T13:55:31;7.13;;;3.47;;
23470;SDS011;11908;50.806;4.424;2024-02-14T13:57:57;6.45;;;4.28;;
23470;SDS011;11908;50.806;4.424;2024-02-14T14:00:23;4.90;;;3.30;;
23470;SDS011;11908;50.806;4.424;2024-02-14T14:02:48;3.47;;;2.80;;
23470;SDS011;11908;50.806;4.424;2024-02-14T14:05:14;4.80;;;3.42;;
23470;SDS011;11908;50.806;4.424;2024-02-14T14:07:40;6.75;;;3.67;;
23470;SDS011;11908;50.806;4.424;2024-02-14T14:10:07;7.32;;;3.53;;
23470;SDS011;11908;50.806;4.424;2024-02-14T14:12:34;6.32;;;3.28;;
23470;SDS011;11908;50.806;4.424;2024-02-14T14:15:01;5.03;;;3.10;;
23470;SDS011;11908;50.806;4.424;2024-02-14T14:17:26;7.50;;;4.35;;
23470;SDS011;11908;50.806;4.424;2024-02-14T14:19:53;6.97;;;5.85;;
23470;SDS011;11908;50.806;4.424;2024-02-14T14:22:19;6.20;;;3.30;;
23470;SDS011;11908;50.806;4.424;2024-02-14T14:24:46;5.60;;;3.00;;
23470;SDS011;11908;50.806;4.424;2024-02-14T14:27:12;5.03;;;3.00;;
23470;SDS011;11908;50.806;4.424;2024-02-14T14:29:42;5.68;;;3.08;;
23470;SDS011;11908;50.806;4.424;2024-02-14T14:32:08;8.50;;;3.08;;